Time;durP1;ratioP1;P1;durP2;ratioP2;P2;SDS_P1;SDS_P2;PMS_P1;PMS_P2;Temp;Humidity;BMP_temperature;BMP_pressure;BME280_temperature;BME280_humidity;BME280_pressure;Samples;Min_cycle;Max_cycle;Signal;HPM_P1;HPM_P2
2023/01/17 00:02:14;;;;;;;2.35;1.50;;;;;;;;;;4935452;29;20051;-85
2023/01/17 00:10:14;;;;;;;1.98;1.42;;;;;;;;;;4952862;29;20047;-85
2023/01/17 00:12:48;;;;;;;3.08;1.75;;;;;;;;;;4947722;28;20416;-85
2023/01/17 00:15:19;;;;;;;2.88;2.53;;;;;;;;;;4947550;29;20056;-85
2023/01/17 00:17:46;;;;;;;3.67;2.53;;;;;;;;;;4936659;29;20494;-85
2023/01/17 00:26:02;;;;;;;2.35;1.95;;;;;;;;;;4944816;29;20051;-85
2023/01/17 01:35:52;;;;;;;3.38;2.22;;;;;;;;;;4992624;28;20056;-86
2023/01/17 01:38:21;;;;;;;4.90;2.33;;;;;;;;;;5020955;28;20046;-86
2023/01/17 01:40:50;;;;;;;4.13;2.47;;;;;;;;;;4991254;28;20034;-85
2023/01/17 01:43:19;;;;;;;3.47;3.17;;;;;;;;;;4994310;28;20057;-85
2023/01/17 01:45:54;;;;;;;5.93;2.63;;;;;;;;;;5004973;28;20049;-85
2023/01/17 01:48:34;;;;;;;3.67;2.08;;;;;;;;;;5015238;28;20054;-86
2023/01/17 01:51:06;;;;;;;5.18;2.53;;;;;;;;;;4991129;28;20404;-85
2023/01/17 01:53:37;;;;;;;3.72;2.50;;;;;;;;;;5011885;28;20465;-85
2023/01/17 01:56:07;;;;;;;8.77;3.20;;;;;;;;;;5008420;28;20049;-85
2023/01/17 01:58:36;;;;;;;5.00;2.35;;;;;;;;;;5008042;28;20045;-85
2023/01/17 02:01:07;;;;;;;3.20;2.47;;;;;;;;;;5009183;28;20042;-86
2023/01/17 02:03:40;;;;;;;3.47;3.25;;;;;;;;;;4997583;28;20108;-85
2023/01/17 02:06:20;;;;;;;2.85;2.00;;;;;;;;;;4988407;28;20057;-85
2023/01/17 02:08:51;;;;;;;5.50;2.60;;;;;;;;;;5008719;28;20420;-85
2023/01/17 02:11:18;;;;;;;2.83;2.42;;;;;;;;;;4992414;28;20057;-85
2023/01/17 02:13:48;;;;;;;4.45;3.30;;;;;;;;;;4999334;28;20053;-85
2023/01/17 02:16:28;;;;;;;3.22;2.40;;;;;;;;;;4993641;28;20062;-85
2023/01/17 02:19:01;;;;;;;3.05;2.70;;;;;;;;;;5007333;28;20064;-85
2023/01/17 02:21:32;;;;;;;3.13;2.77;;;;;;;;;;4998871;28;20436;-85
2023/01/17 02:24:15;;;;;;;5.45;2.88;;;;;;;;;;4991199;28;20045;-85
2023/01/17 02:27:03;;;;;;;4.47;2.63;;;;;;;;;;5013921;28;20046;-86
2023/01/17 02:30:18;;;;;;;3.40;2.38;;;;;;;;;;4999918;28;20057;-85
2023/01/17 02:33:01;;;;;;;4.30;3.80;;;;;;;;;;4937736;28;20077;-85
2023/01/17 02:35:34;;;;;;;4.28;3.33;;;;;;;;;;4970763;28;20058;-86
2023/01/17 02:38:08;;;;;;;4.90;3.00;;;;;;;;;;5008663;28;20049;-85
2023/01/17 02:40:38;;;;;;;3.63;2.80;;;;;;;;;;4988995;28;20046;-85
2023/01/17 02:43:08;;;;;;;3.65;2.72;;;;;;;;;;4991654;28;20061;-85
2023/01/17 02:45:36;;;;;;;9.75;3.63;;;;;;;;;;4986634;28;20499;-86
2023/01/17 02:48:06;;;;;;;4.90;2.45;;;;;;;;;;5004043;28;20050;-85
2023/01/17 02:50:44;;;;;;;4.28;3.00;;;;;;;;;;4990197;28;20412;-85
2023/01/17 02:53:24;;;;;;;4.22;2.95;;;;;;;;;;4991565;28;20042;-85
2023/01/17 02:55:56;;;;;;;4.15;2.55;;;;;;;;;;4991913;28;20050;-85
2023/01/17 02:58:38;;;;;;;4.50;2.38;;;;;;;;;;4988683;28;20050;-85
2023/01/17 03:01:17;;;;;;;4.88;3.08;;;;;;;;;;4990876;28;20507;-86
2023/01/17 03:03:50;;;;;;;4.90;2.90;;;;;;;;;;5010191;28;20054;-85
2023/01/17 03:06:22;;;;;;;2.65;2.25;;;;;;;;;;4987917;28;20053;-85
2023/01/17 03:08:50;;;;;;;6.07;3.70;;;;;;;;;;4975807;28;21770;-85
2023/01/17 03:11:17;;;;;;;4.70;2.75;;;;;;;;;;5008876;28;20050;-85
2023/01/17 03:13:54;;;;;;;5.70;3.20;;;;;;;;;;4993860;28;20053;-85
2023/01/17 03:16:22;;;;;;;4.32;2.83;;;;;;;;;;4992038;28;20053;-86
2023/01/17 03:18:52;;;;;;;3.72;2.33;;;;;;;;;;5010537;28;20042;-85
2023/01/17 03:21:20;;;;;;;6.93;4.20;;;;;;;;;;5001588;28;20042;-86
2023/01/17 03:23:49;;;;;;;4.50;2.83;;;;;;;;;;5013515;28;20411;-86
2023/01/17 03:26:16;;;;;;;3.20;1.80;;;;;;;;;;4994249;28;20057;-84
2023/01/17 03:28:46;;;;;;;3.05;1.95;;;;;;;;;;5010147;28;20053;-85
2023/01/17 03:31:14;;;;;;;2.85;1.77;;;;;;;;;;5011173;28;20045;-85
2023/01/17 03:33:42;;;;;;;2.08;1.65;;;;;;;;;;4992419;28;20054;-85
2023/01/17 03:36:15;;;;;;;2.33;1.73;;;;;;;;;;4980194;28;20073;-85
2023/01/17 03:38:45;;;;;;;2.13;1.30;;;;;;;;;;5013720;28;20443;-85
2023/01/17 03:41:14;;;;;;;5.55;2.47;;;;;;;;;;4995741;28;20053;-85
2023/01/17 03:43:41;;;;;;;2.17;1.42;;;;;;;;;;5006351;28;20050;-83
2023/01/17 03:46:19;;;;;;;2.88;2.00;;;;;;;;;;4999521;28;20057;-83
2023/01/17 03:48:46;;;;;;;2.38;1.98;;;;;;;;;;4995672;28;20042;-83
2023/01/17 03:51:17;;;;;;;3.40;2.30;;;;;;;;;;4976467;28;20404;-83
2023/01/17 03:53:47;;;;;;;2.95;2.33;;;;;;;;;;5001476;28;20050;-83
2023/01/17 03:56:14;;;;;;;3.85;2.97;;;;;;;;;;4994182;28;20049;-83
2023/01/17 03:58:42;;;;;;;4.10;2.78;;;;;;;;;;5009850;28;20034;-83
2023/01/17 04:01:09;;;;;;;4.28;2.80;;;;;;;;;;5010733;28;20428;-83
2023/01/17 04:03:39;;;;;;;2.97;2.72;;;;;;;;;;4992758;28;20523;-83
2023/01/17 04:06:11;;;;;;;3.55;3.25;;;;;;;;;;4995093;28;20057;-83
2023/01/17 04:08:40;;;;;;;5.38;3.67;;;;;;;;;;4980492;28;20069;-83
2023/01/17 04:11:09;;;;;;;4.57;3.92;;;;;;;;;;4998488;28;20404;-83
2023/01/17 04:13:36;;;;;;;7.22;4.32;;;;;;;;;;4994517;28;20054;-84
2023/01/17 04:16:04;;;;;;;6.20;4.28;;;;;;;;;;4995379;28;20050;-83
2023/01/17 04:18:32;;;;;;;4.57;3.78;;;;;;;;;;5011377;28;20056;-83
2023/01/17 04:21:04;;;;;;;5.38;4.22;;;;;;;;;;4986889;28;20049;-83
2023/01/17 04:23:31;;;;;;;4.35;3.65;;;;;;;;;;4988083;28;20423;-83
2023/01/17 04:26:00;;;;;;;4.40;3.53;;;;;;;;;;5001499;28;20061;-83
2023/01/17 04:28:30;;;;;;;7.30;3.78;;;;;;;;;;5001476;28;20050;-85
2023/01/17 04:31:00;;;;;;;5.28;3.28;;;;;;;;;;5006257;28;20053;-84
2023/01/17 04:33:27;;;;;;;5.57;3.70;;;;;;;;;;4979123;28;20050;-84
2023/01/17 04:35:55;;;;;;;6.82;3.50;;;;;;;;;;4978627;28;20527;-85
2023/01/17 04:38:24;;;;;;;4.88;3.13;;;;;;;;;;4972673;28;20069;-84
2023/01/17 04:40:51;;;;;;;5.00;3.55;;;;;;;;;;5010505;28;20049;-84
2023/01/17 04:43:22;;;;;;;5.25;3.90;;;;;;;;;;5009844;28;20069;-83
2023/01/17 04:45:54;;;;;;;5.03;4.20;;;;;;;;;;4991061;28;20054;-83
2023/01/17 04:48:24;;;;;;;9.80;5.28;;;;;;;;;;5008901;28;20054;-82
2023/01/17 04:50:59;;;;;;;6.22;4.68;;;;;;;;;;4994482;28;20049;-83
2023/01/17 04:53:28;;;;;;;4.68;4.15;;;;;;;;;;4993164;28;20061;-82
2023/01/17 04:55:56;;;;;;;5.97;4.47;;;;;;;;;;5006761;28;20413;-82
2023/01/17 04:58:27;;;;;;;6.10;3.92;;;;;;;;;;4998771;28;20054;-83
2023/01/17 05:00:54;;;;;;;5.68;4.18;;;;;;;;;;4990380;28;20034;-83
2023/01/17 05:03:23;;;;;;;5.22;3.70;;;;;;;;;;4991280;28;20511;-82
2023/01/17 05:05:50;;;;;;;4.50;3.63;;;;;;;;;;4990797;28;20054;-83
2023/01/17 05:08:18;;;;;;;4.78;3.30;;;;;;;;;;4991628;28;20404;-82
2023/01/17 05:10:45;;;;;;;4.90;2.70;;;;;;;;;;4991608;28;20061;-83
2023/01/17 05:13:16;;;;;;;2.70;2.08;;;;;;;;;;4992872;28;20514;-83
2023/01/17 05:15:44;;;;;;;7.35;3.25;;;;;;;;;;4974857;28;20053;-82
2023/01/17 05:18:12;;;;;;;10.30;3.05;;;;;;;;;;4998894;28;20492;-83
2023/01/17 05:20:40;;;;;;;4.03;3.15;;;;;;;;;;4994254;28;20073;-83
2023/01/17 05:23:07;;;;;;;4.93;3.40;;;;;;;;;;4977779;28;20052;-83
2023/01/17 05:25:37;;;;;;;5.60;2.90;;;;;;;;;;4988204;28;20500;-84
2023/01/17 05:28:07;;;;;;;3.30;2.95;;;;;;;;;;5000706;28;20050;-84
2023/01/17 05:30:34;;;;;;;3.95;2.75;;;;;;;;;;4995141;28;20053;-84
2023/01/17 05:33:03;;;;;;;9.88;3.72;;;;;;;;;;5005045;28;20065;-84
2023/01/17 05:35:32;;;;;;;2.85;2.03;;;;;;;;;;4969887;28;20046;-84
2023/01/17 05:37:59;;;;;;;3.47;2.92;;;;;;;;;;4998412;28;20052;-84
2023/01/17 05:40:28;;;;;;;6.95;3.20;;;;;;;;;;4990520;28;20049;-85
2023/01/17 05:42:57;;;;;;;3.85;2.85;;;;;;;;;;5012156;28;20428;-84
2023/01/17 05:45:27;;;;;;;3.75;3.42;;;;;;;;;;5002967;28;20402;-85
2023/01/17 05:47:55;;;;;;;4.95;2.97;;;;;;;;;;4990835;28;20050;-84
2023/01/17 05:50:28;;;;;;;3.78;2.78;;;;;;;;;;4994009;28;20052;-83
2023/01/17 05:53:00;;;;;;;4.97;2.75;;;;;;;;;;4994814;28;20041;-83
2023/01/17 05:55:28;;;;;;;3.47;2.45;;;;;;;;;;4995599;28;20408;-84
2023/01/17 05:57:57;;;;;;;5.78;2.78;;;;;;;;;;4988714;28;20049;-85
2023/01/17 06:00:25;;;;;;;5.75;3.88;;;;;;;;;;4978310;28;20046;-85
2023/01/17 06:02:57;;;;;;;3.83;2.83;;;;;;;;;;4960009;28;20058;-84
2023/01/17 06:05:25;;;;;;;3.50;3.08;;;;;;;;;;4978715;28;20046;-84
2023/01/17 06:07:56;;;;;;;4.40;2.67;;;;;;;;;;4994590;28;20038;-84
2023/01/17 06:10:24;;;;;;;5.15;2.72;;;;;;;;;;4994419;28;20424;-84
2023/01/17 06:13:00;;;;;;;4.15;3.20;;;;;;;;;;4980608;28;20056;-85
2023/01/17 06:15:30;;;;;;;4.47;2.85;;;;;;;;;;4994108;28;20054;-82
2023/01/17 06:18:04;;;;;;;4.68;3.88;;;;;;;;;;4995120;28;20061;-82
2023/01/17 06:20:32;;;;;;;4.38;3.35;;;;;;;;;;4993703;28;20392;-83
2023/01/17 06:23:03;;;;;;;3.75;3.20;;;;;;;;;;4985210;28;20057;-83
2023/01/17 06:25:30;;;;;;;5.07;2.60;;;;;;;;;;5011007;28;20053;-83
2023/01/17 06:27:57;;;;;;;2.60;2.15;;;;;;;;;;4993936;28;20041;-84
2023/01/17 06:30:24;;;;;;;7.60;2.85;;;;;;;;;;4993231;28;20499;-84
2023/01/17 06:32:52;;;;;;;6.22;3.70;;;;;;;;;;4994254;28;20042;-83
2023/01/17 06:35:20;;;;;;;4.22;2.72;;;;;;;;;;4993972;28;20057;-84
2023/01/17 06:37:50;;;;;;;5.65;3.33;;;;;;;;;;4994286;28;20077;-84
2023/01/17 06:40:19;;;;;;;5.40;3.15;;;;;;;;;;5008125;28;20041;-83
2023/01/17 06:42:48;;;;;;;5.60;3.65;;;;;;;;;;5011904;28;20046;-84
2023/01/17 06:45:19;;;;;;;5.18;2.95;;;;;;;;;;5024282;22;20053;-85
2023/01/17 06:48:25;;;;;;;3.42;2.47;;;;;;;;;;4972649;28;20057;-85
2023/01/17 06:50:56;;;;;;;4.65;3.30;;;;;;;;;;4986251;28;20053;-85
2023/01/17 06:53:30;;;;;;;3.72;3.22;;;;;;;;;;4982849;28;20050;-85
2023/01/17 09:16:41;;;;;;;8.73;5.90;;;;;;;;;;5527258;23;20063;-92
2023/01/17 09:19:09;;;;;;;10.02;4.03;;;;;;;;;;4933344;29;20051;-92
2023/01/17 09:21:37;;;;;;;9.05;4.82;;;;;;;;;;4931564;29;20070;-92
2023/01/17 09:24:05;;;;;;;5.75;4.68;;;;;;;;;;4930823;29;20048;-92
2023/01/17 09:26:32;;;;;;;7.60;5.13;;;;;;;;;;4919138;29;20504;-92
2023/01/17 09:29:00;;;;;;;7.55;4.47;;;;;;;;;;4933584;29;20055;-93
2023/01/17 09:31:28;;;;;;;8.00;5.50;;;;;;;;;;4925761;29;20048;-92
2023/01/17 09:33:58;;;;;;;7.28;4.72;;;;;;;;;;4932051;29;20051;-91
2023/01/17 09:36:27;;;;;;;8.13;5.05;;;;;;;;;;4932471;29;20055;-92
2023/01/17 09:38:56;;;;;;;7.97;5.70;;;;;;;;;;4916918;29;20071;-91
2023/01/17 09:41:29;;;;;;;;;;;;;;;;;;4913250;29;20048;-92
2023/01/17 09:44:01;;;;;;;5.95;4.50;;;;;;;;;;4919721;29;19923;-92
2023/01/17 09:46:33;;;;;;;7.57;5.72;;;;;;;;;;4916558;29;20058;-92
2023/01/17 09:49:08;;;;;;;10.48;5.28;;;;;;;;;;4915907;29;20054;-92
2023/01/17 09:51:36;;;;;;;7.15;6.05;;;;;;;;;;4947193;29;20401;-92
2023/01/17 09:54:04;;;;;;;13.55;6.97;;;;;;;;;;4932609;29;20425;-91
2023/01/17 09:56:36;;;;;;;7.30;6.07;;;;;;;;;;4915071;29;20066;-92
2023/01/17 09:59:17;;;;;;;6.57;5.50;;;;;;;;;;4933632;29;20656;-91
2023/01/17 10:01:48;;;;;;;6.70;5.50;;;;;;;;;;4915339;29;20449;-91
2023/01/17 10:04:37;;;;;;;8.02;6.40;;;;;;;;;;4915870;29;20058;-91
2023/01/17 10:07:13;;;;;;;7.60;5.50;;;;;;;;;;4913879;29;20425;-91
2023/01/17 10:09:53;;;;;;;8.32;4.82;;;;;;;;;;4915347;29;20067;-91
2023/01/17 10:12:28;;;;;;;7.43;5.60;;;;;;;;;;4915275;29;20055;-92
2023/01/17 10:15:06;;;;;;;7.68;5.22;;;;;;;;;;4913110;29;20059;-92
2023/01/17 10:17:41;;;;;;;10.90;7.85;;;;;;;;;;4946154;28;20059;-91
2023/01/17 10:20:24;;;;;;;9.75;6.55;;;;;;;;;;4910243;29;20047;-92
2023/01/17 10:23:07;;;;;;;7.55;6.03;;;;;;;;;;4931681;29;20048;-91
2023/01/17 10:25:42;;;;;;;8.93;6.25;;;;;;;;;;4921294;29;20055;-91
2023/01/17 10:28:15;;;;;;;10.20;5.78;;;;;;;;;;4909542;29;20413;-92
2023/01/17 10:30:47;;;;;;;8.95;6.20;;;;;;;;;;4929874;29;20050;-92
2023/01/17 10:33:20;;;;;;;7.10;5.72;;;;;;;;;;4930858;29;20047;-91
2023/01/17 10:35:55;;;;;;;7.07;4.87;;;;;;;;;;4913024;29;20051;-92
2023/01/17 10:38:28;;;;;;;7.32;4.15;;;;;;;;;;4915771;29;20416;-92
2023/01/17 10:40:59;;;;;;;5.82;4.40;;;;;;;;;;4929869;29;20052;-92
2023/01/17 10:43:33;;;;;;;8.20;4.80;;;;;;;;;;4915929;29;20075;-92
2023/01/17 10:46:01;;;;;;;5.28;4.78;;;;;;;;;;4913338;29;20083;-92
2023/01/17 10:48:38;;;;;;;5.97;4.65;;;;;;;;;;4927732;29;20059;-92
2023/01/17 10:51:26;;;;;;;7.93;4.95;;;;;;;;;;4912526;29;20063;-92
2023/01/17 10:54:07;;;;;;;16.30;6.65;;;;;;;;;;4925400;29;20044;-91
2023/01/17 10:56:35;;;;;;;9.63;5.30;;;;;;;;;;4907921;29;20055;-90
2023/01/17 10:59:16;;;;;;;9.00;6.00;;;;;;;;;;4904474;29;20040;-93
2023/01/17 11:01:44;;;;;;;8.93;4.88;;;;;;;;;;4907845;29;20075;-92
2023/01/17 11:04:15;;;;;;;4.97;4.22;;;;;;;;;;4905190;29;20064;-93
2023/01/17 11:07:18;;;;;;;7.68;5.88;;;;;;;;;;4905714;29;20055;-96
2023/01/17 11:10:07;;;;;;;5.93;4.38;;;;;;;;;;4920741;29;20075;-94
2023/01/17 11:12:39;;;;;;;9.73;5.60;;;;;;;;;;4913000;29;20055;-91
2023/01/17 11:15:24;;;;;;;4.35;3.95;;;;;;;;;;4923896;29;20043;-92
2023/01/17 11:18:02;;;;;;;7.00;4.38;;;;;;;;;;4912391;29;20501;-91
2023/01/17 11:20:34;;;;;;;7.88;3.78;;;;;;;;;;4928933;29;20059;-91
2023/01/17 11:23:06;;;;;;;4.18;3.50;;;;;;;;;;4931337;29;20051;-91
2023/01/17 11:25:35;;;;;;;5.30;4.00;;;;;;;;;;4913339;29;20066;-91
2023/01/17 11:28:05;;;;;;;4.40;3.53;;;;;;;;;;4929063;29;20055;-91
2023/01/17 11:30:33;;;;;;;6.25;4.30;;;;;;;;;;4913403;29;20052;-91
2023/01/17 11:33:07;;;;;;;8.88;5.50;;;;;;;;;;4916514;29;20067;-92
2023/01/17 11:35:41;;;;;;;5.20;4.28;;;;;;;;;;4927631;29;20054;-92
2023/01/17 11:38:16;;;;;;;9.60;4.40;;;;;;;;;;4916447;29;20059;-91
2023/01/17 11:40:46;;;;;;;4.78;3.63;;;;;;;;;;4918579;29;20067;-92
2023/01/17 11:43:24;;;;;;;4.32;3.03;;;;;;;;;;4935953;29;20441;-91
2023/01/17 11:46:03;;;;;;;5.50;3.45;;;;;;;;;;4918948;29;20498;-91
2023/01/17 11:48:37;;;;;;;4.88;3.22;;;;;;;;;;4919090;29;20059;-92
2023/01/17 11:51:04;;;;;;;;;;;;;;;;;;4932927;29;20063;-92
2023/01/17 11:53:33;;;;;;;4.50;2.92;;;;;;;;;;4926580;29;19927;-92
2023/01/17 11:56:08;;;;;;;4.78;2.80;;;;;;;;;;4918014;29;20047;-92
2023/01/17 11:58:37;;;;;;;5.85;3.35;;;;;;;;;;4917602;29;21832;-93
2023/01/17 12:01:26;;;;;;;4.97;3.13;;;;;;;;;;4912034;29;20060;-92
2023/01/17 12:04:17;;;;;;;3.80;2.50;;;;;;;;;;4902187;29;20055;-92
2023/01/17 12:06:50;;;;;;;5.53;3.60;;;;;;;;;;4914639;29;20394;-92
2023/01/17 12:09:28;;;;;;;4.00;2.30;;;;;;;;;;4906863;29;20059;-92
2023/01/17 12:15:01;;;;;;;6.78;2.85;;;;;;;;;;4912249;29;20047;-93
2023/01/17 12:17:43;;;;;;;2.90;2.58;;;;;;;;;;4908465;29;20056;-92
2023/01/17 12:20:16;;;;;;;3.83;3.13;;;;;;;;;;4909424;29;20647;-92
2023/01/17 12:22:56;;;;;;;2.83;2.25;;;;;;;;;;4918479;29;20058;-92
2023/01/17 12:25:28;;;;;;;4.38;3.13;;;;;;;;;;4913450;29;20063;-92
2023/01/17 12:28:15;;;;;;;2.55;2.35;;;;;;;;;;4917581;29;20055;-92
2023/01/17 12:30:56;;;;;;;3.22;2.92;;;;;;;;;;4947332;29;20051;-93
2023/01/17 12:33:29;;;;;;;4.00;2.38;;;;;;;;;;4918627;29;20052;-92
2023/01/17 12:35:59;;;;;;;6.22;2.88;;;;;;;;;;4912152;29;20062;-89
2023/01/17 12:38:33;;;;;;;4.38;2.72;;;;;;;;;;4923171;29;20055;-93
2023/01/17 12:41:04;;;;;;;3.47;3.15;;;;;;;;;;4917142;29;20058;-90
2023/01/17 12:43:36;;;;;;;2.53;1.90;;;;;;;;;;4904147;29;20421;-93
2023/01/17 12:53:19;;;;;;;2.95;2.65;;;;;;;;;;4947537;29;20409;-87
2023/01/17 12:55:53;;;;;;;10.23;2.30;;;;;;;;;;4917176;29;20048;-88
2023/01/17 12:58:24;;;;;;;3.47;2.22;;;;;;;;;;4935193;29;20421;-87
2023/01/17 13:01:01;;;;;;;2.22;1.35;;;;;;;;;;4934405;29;20055;-87
2023/01/17 13:03:40;;;;;;;3.08;1.60;;;;;;;;;;4920159;29;20043;-88
2023/01/17 13:06:08;;;;;;;2.25;2.03;;;;;;;;;;4938689;29;20417;-87
2023/01/17 13:08:45;;;;;;;2.80;2.33;;;;;;;;;;4917860;29;20055;-87
2023/01/17 13:11:17;;;;;;;2.40;2.10;;;;;;;;;;4933611;29;20052;-88
2023/01/17 13:13:50;;;;;;;2.38;2.17;;;;;;;;;;4942403;29;20071;-88
2023/01/17 13:16:28;;;;;;;3.65;1.90;;;;;;;;;;4925695;29;20055;-88
2023/01/17 13:19:02;;;;;;;3.38;2.42;;;;;;;;;;4945571;29;20044;-87
2023/01/17 13:21:30;;;;;;;5.68;2.28;;;;;;;;;;4939109;29;20051;-88
2023/01/17 13:24:10;;;;;;;5.35;2.05;;;;;;;;;;4938277;29;20055;-88
2023/01/17 13:26:51;;;;;;;4.60;2.72;;;;;;;;;;4923454;29;20051;-88
2023/01/17 13:29:28;;;;;;;3.00;2.55;;;;;;;;;;4917232;29;20043;-88
2023/01/17 13:32:06;;;;;;;4.40;1.98;;;;;;;;;;4917570;29;20086;-87
2023/01/17 13:35:04;;;;;;;1.80;1.63;;;;;;;;;;4917656;29;20048;-87
2023/01/17 13:37:59;;;;;;;2.08;1.60;;;;;;;;;;4934446;29;20055;-87
2023/01/17 13:40:36;;;;;;;3.47;1.92;;;;;;;;;;4907381;29;20441;-88
2023/01/17 13:43:05;;;;;;;3.65;1.70;;;;;;;;;;4912416;29;20063;-87
2023/01/17 13:45:36;;;;;;;3.95;2.28;;;;;;;;;;4932581;29;20591;-88
2023/01/17 13:48:25;;;;;;;2.30;2.10;;;;;;;;;;4916521;29;20054;-87
2023/01/17 13:50:54;;;;;;;4.88;1.92;;;;;;;;;;4918135;29;20048;-88
2023/01/17 13:53:47;;;;;;;3.65;2.03;;;;;;;;;;4920475;29;20055;-88
2023/01/17 13:56:25;;;;;;;2.97;1.45;;;;;;;;;;4917227;29;20044;-87
2023/01/17 13:59:01;;;;;;;2.40;1.73;;;;;;;;;;4920726;29;20402;-89
2023/01/17 14:01:52;;;;;;;2.53;1.90;;;;;;;;;;4903306;29;20071;-88
2023/01/17 14:04:25;;;;;;;4.00;1.80;;;;;;;;;;4918620;29;20055;-88
2023/01/17 14:07:02;;;;;;;2.80;2.40;;;;;;;;;;4936287;29;20058;-88
2023/01/17 14:09:40;;;;;;;3.22;1.88;;;;;;;;;;4934521;29;20039;-88
2023/01/17 14:12:28;;;;;;;3.28;1.45;;;;;;;;;;4923361;29;20059;-87
2023/01/17 14:14:57;;;;;;;3.85;2.20;;;;;;;;;;4920458;29;20056;-89
2023/01/17 14:17:55;;;;;;;3.05;1.85;;;;;;;;;;4925336;29;20047;-88
2023/01/17 14:21:07;;;;;;;2.38;1.50;;;;;;;;;;4934900;29;20055;-88
2023/01/17 14:23:47;;;;;;;3.53;3.22;;;;;;;;;;4931733;29;20062;-89
2023/01/17 14:26:41;;;;;;;1.92;1.63;;;;;;;;;;4917159;29;20060;-87
2023/01/17 14:29:46;;;;;;;5.28;1.73;;;;;;;;;;4912910;29;20054;-88
2023/01/17 14:32:22;;;;;;;4.57;1.85;;;;;;;;;;4916777;29;20052;-89
2023/01/17 14:34:53;;;;;;;2.40;1.80;;;;;;;;;;4916017;29;20079;-87
2023/01/17 14:37:45;;;;;;;3.00;2.08;;;;;;;;;;4915299;29;20067;-87
2023/01/17 14:40:17;;;;;;;3.70;1.88;;;;;;;;;;4917730;29;20517;-88
2023/01/17 14:42:46;;;;;;;3.13;2.50;;;;;;;;;;4921575;29;20131;-87
2023/01/17 14:45:19;;;;;;;2.15;1.38;;;;;;;;;;4933005;29;20099;-88
2023/01/17 14:47:50;;;;;;;;;;;;;;;;;;4934349;29;20054;-87
2023/01/17 14:50:23;;;;;;;4.35;1.70;;;;;;;;;;4918116;29;20289;-87
2023/01/17 14:53:26;;;;;;;2.53;1.98;;;;;;;;;;4951123;28;20048;-88
2023/01/17 14:55:58;;;;;;;6.00;2.00;;;;;;;;;;4860741;29;20534;-87
2023/01/17 14:58:27;;;;;;;3.60;2.17;;;;;;;;;;4927671;29;20072;-88
2023/01/17 15:00:58;;;;;;;2.55;1.63;;;;;;;;;;4913088;29;20071;-89
2023/01/17 15:03:26;;;;;;;4.13;2.95;;;;;;;;;;4933221;29;20044;-86
2023/01/17 15:05:55;;;;;;;4.15;1.63;;;;;;;;;;4910911;29;20047;-89
2023/01/17 15:08:27;;;;;;;3.92;2.13;;;;;;;;;;4932902;29;20051;-88
2023/01/17 15:11:01;;;;;;;5.00;2.20;;;;;;;;;;4929541;29;20059;-87
2023/01/17 15:13:33;;;;;;;2.65;1.80;;;;;;;;;;4947318;28;20047;-89
2023/01/17 15:16:06;;;;;;;2.33;1.73;;;;;;;;;;4915935;29;20055;-87
2023/01/17 15:18:38;;;;;;;2.03;1.83;;;;;;;;;;4917480;29;20051;-87
2023/01/17 15:21:12;;;;;;;3.60;1.80;;;;;;;;;;4920258;29;20054;-87
2023/01/17 15:23:51;;;;;;;4.25;2.63;;;;;;;;;;4921702;29;20509;-89
2023/01/17 15:26:24;;;;;;;2.55;1.92;;;;;;;;;;4936466;29;20044;-88
2023/01/17 15:28:52;;;;;;;4.03;2.58;;;;;;;;;;4921075;29;20051;-88
2023/01/17 15:31:24;;;;;;;2.38;1.88;;;;;;;;;;4918202;29;20051;-88
2023/01/17 15:33:55;;;;;;;2.78;2.30;;;;;;;;;;4931232;29;20063;-88
2023/01/17 15:36:27;;;;;;;9.68;2.45;;;;;;;;;;4920542;29;20048;-88
2023/01/17 15:39:01;;;;;;;2.47;1.85;;;;;;;;;;4937284;29;20047;-88
2023/01/17 15:41:31;;;;;;;4.43;3.15;;;;;;;;;;4922163;29;20056;-87
2023/01/17 15:43:59;;;;;;;2.78;1.85;;;;;;;;;;4919823;29;20509;-88
2023/01/17 15:46:32;;;;;;;3.67;2.17;;;;;;;;;;4915517;29;20051;-89
2023/01/17 15:49:07;;;;;;;3.22;2.35;;;;;;;;;;4922986;29;20055;-87
2023/01/17 15:51:49;;;;;;;3.83;1.95;;;;;;;;;;4921719;29;20047;-87
2023/01/17 15:54:46;;;;;;;2.58;2.17;;;;;;;;;;4939587;29;20058;-87
2023/01/17 15:57:20;;;;;;;4.05;2.42;;;;;;;;;;4912104;29;20525;-87
2023/01/17 15:59:52;;;;;;;13.77;4.10;;;;;;;;;;4933358;29;20048;-88
2023/01/17 16:02:54;;;;;;;5.75;3.60;;;;;;;;;;4920305;29;20051;-87
2023/01/17 16:05:40;;;;;;;4.80;2.10;;;;;;;;;;4935271;29;20066;-87
2023/01/17 16:08:38;;;;;;;4.72;4.22;;;;;;;;;;4916518;29;20509;-87
2023/01/17 16:11:08;;;;;;;4.88;3.15;;;;;;;;;;4911284;29;20052;-87
2023/01/17 16:13:46;;;;;;;4.50;2.47;;;;;;;;;;4935133;29;20051;-87
2023/01/17 16:16:17;;;;;;;2.78;2.03;;;;;;;;;;4918469;29;20055;-88
2023/01/17 16:18:51;;;;;;;5.93;3.38;;;;;;;;;;4912664;29;20055;-87
2023/01/17 16:21:25;;;;;;;2.08;1.77;;;;;;;;;;4933647;29;20056;-87
2023/01/17 16:23:53;;;;;;;3.58;2.70;;;;;;;;;;4935422;29;20052;-87
2023/01/17 16:26:23;;;;;;;3.20;2.58;;;;;;;;;;4920148;29;20052;-87
2023/01/17 16:28:54;;;;;;;3.45;3.15;;;;;;;;;;4918081;29;20645;-87
2023/01/17 16:31:24;;;;;;;;;;;;;;;;;;4918629;29;20059;-87
2023/01/17 16:33:52;;;;;;;3.80;3.17;;;;;;;;;;4903198;29;19929;-87
2023/01/17 16:36:21;;;;;;;5.95;3.55;;;;;;;;;;4909158;29;20425;-87
2023/01/17 16:38:50;;;;;;;2.42;2.00;;;;;;;;;;4923092;29;20060;-87
2023/01/17 16:41:18;;;;;;;3.90;2.17;;;;;;;;;;4916973;29;20063;-87
2023/01/17 16:44:00;;;;;;;3.47;2.95;;;;;;;;;;4919921;29;20425;-88
2023/01/17 16:46:28;;;;;;;6.45;2.60;;;;;;;;;;4918297;29;20602;-88
2023/01/17 16:48:56;;;;;;;4.70;2.35;;;;;;;;;;4933475;29;20051;-88
2023/01/17 16:51:27;;;;;;;3.35;2.80;;;;;;;;;;4931985;29;20052;-87
2023/01/17 16:54:07;;;;;;;3.40;2.75;;;;;;;;;;4951073;28;20039;-87
2023/01/17 16:56:35;;;;;;;3.47;2.75;;;;;;;;;;4938789;29;20055;-87
2023/01/17 16:59:08;;;;;;;4.65;2.88;;;;;;;;;;4922247;29;20059;-87
2023/01/17 17:01:36;;;;;;;4.13;2.55;;;;;;;;;;4938492;29;20562;-87
2023/01/17 17:04:09;;;;;;;3.17;2.22;;;;;;;;;;4920576;29;20048;-87
2023/01/17 17:06:37;;;;;;;4.13;2.60;;;;;;;;;;4919573;29;20047;-86
2023/01/17 17:09:06;;;;;;;6.53;3.42;;;;;;;;;;4919538;29;20059;-88
2023/01/17 17:16:13;;;;;;;3.10;2.45;;;;;;;;;;4820330;29;20639;-86
2023/01/17 17:25:39;;;;;;;4.00;3.63;;;;;;;;;;5323892;23;20052;-87
2023/01/17 17:28:07;;;;;;;5.18;2.97;;;;;;;;;;4943945;29;20044;-87
2023/01/17 17:30:35;;;;;;;5.05;3.15;;;;;;;;;;4929209;29;20394;-86
2023/01/17 17:33:04;;;;;;;4.13;2.70;;;;;;;;;;4931982;29;20047;-87
2023/01/17 17:35:33;;;;;;;3.10;2.30;;;;;;;;;;4914935;29;20061;-86
2023/01/17 17:38:01;;;;;;;7.15;3.17;;;;;;;;;;4930972;29;20054;-87
2023/01/17 17:40:28;;;;;;;3.47;2.80;;;;;;;;;;4916459;29;20059;-87
2023/01/17 17:43:01;;;;;;;4.20;2.58;;;;;;;;;;4933826;29;20051;-90
2023/01/17 17:45:28;;;;;;;2.83;2.42;;;;;;;;;;4932336;29;20055;-87
2023/01/17 17:47:58;;;;;;;9.77;4.18;;;;;;;;;;4931855;29;20039;-89
2023/01/17 17:50:29;;;;;;;7.43;4.40;;;;;;;;;;4928243;29;20039;-89
2023/01/17 17:52:59;;;;;;;61.00;41.33;;;;;;;;;;4920184;29;20132;-87
2023/01/17 17:55:29;;;;;;;26.85;19.95;;;;;;;;;;4924008;29;20058;-86
2023/01/17 17:58:00;;;;;;;13.85;12.45;;;;;;;;;;4914290;29;20839;-87
2023/01/17 18:00:28;;;;;;;9.55;7.68;;;;;;;;;;4921670;29;20056;-86
2023/01/17 18:02:58;;;;;;;5.93;3.67;;;;;;;;;;4921474;29;20453;-87
2023/01/17 18:05:29;;;;;;;5.95;3.60;;;;;;;;;;4906480;29;22347;-87
2023/01/17 18:08:04;;;;;;;6.88;3.55;;;;;;;;;;4918369;29;20043;-89
2023/01/17 18:10:32;;;;;;;3.20;2.38;;;;;;;;;;4911150;29;20063;-87
2023/01/17 18:13:07;;;;;;;3.33;2.60;;;;;;;;;;4897917;29;20051;-87
2023/01/17 18:15:35;;;;;;;12.00;3.95;;;;;;;;;;4914215;29;20304;-87
2023/01/17 18:18:02;;;;;;;3.65;2.25;;;;;;;;;;4914557;29;20059;-87
2023/01/17 18:20:34;;;;;;;5.53;2.72;;;;;;;;;;4911385;29;20058;-87
2023/01/17 18:23:01;;;;;;;5.05;4.30;;;;;;;;;;4929434;29;20047;-87
2023/01/17 18:25:31;;;;;;;5.75;3.72;;;;;;;;;;4913326;29;20052;-87
2023/01/17 18:28:00;;;;;;;6.03;3.13;;;;;;;;;;4915577;29;20425;-87
2023/01/17 18:30:37;;;;;;;3.35;2.33;;;;;;;;;;4914518;29;20409;-86
2023/01/17 18:33:04;;;;;;;5.00;2.70;;;;;;;;;;4918546;29;20044;-87
2023/01/17 18:35:32;;;;;;;5.88;3.17;;;;;;;;;;4906977;29;20090;-87
2023/01/17 18:38:01;;;;;;;5.32;3.08;;;;;;;;;;4916540;29;20059;-87
2023/01/17 18:40:28;;;;;;;3.33;2.38;;;;;;;;;;4932758;29;20071;-87
2023/01/17 18:42:59;;;;;;;3.40;3.08;;;;;;;;;;4929270;28;20997;-86
2023/01/17 18:45:27;;;;;;;4.53;3.05;;;;;;;;;;4935065;23;20043;-83
2023/01/17 18:47:54;;;;;;;6.68;3.53;;;;;;;;;;4899782;29;20323;-83
2023/01/17 18:50:22;;;;;;;5.45;2.92;;;;;;;;;;4899511;29;20523;-83
2023/01/17 18:52:50;;;;;;;5.68;3.08;;;;;;;;;;4900553;29;20082;-83
2023/01/17 18:55:19;;;;;;;4.18;3.05;;;;;;;;;;4898934;29;20048;-83
2023/01/17 18:57:49;;;;;;;5.60;3.20;;;;;;;;;;4894368;29;20369;-82
2023/01/17 19:00:18;;;;;;;3.28;2.90;;;;;;;;;;4895579;29;20059;-83
2023/01/17 19:02:47;;;;;;;4.97;3.55;;;;;;;;;;4906045;29;20044;-83
2023/01/17 19:05:16;;;;;;;4.03;3.40;;;;;;;;;;4896884;29;20525;-83
2023/01/17 19:07:43;;;;;;;11.32;5.55;;;;;;;;;;4895483;29;20420;-84
2023/01/17 19:10:13;;;;;;;10.05;5.03;;;;;;;;;;4910586;29;20789;-83
2023/01/17 19:12:44;;;;;;;6.55;5.00;;;;;;;;;;4893593;29;20055;-83
2023/01/17 19:15:11;;;;;;;8.02;4.28;;;;;;;;;;4896399;29;20059;-83
2023/01/17 19:17:39;;;;;;;5.65;3.83;;;;;;;;;;4899825;29;20054;-83
2023/01/17 19:20:07;;;;;;;6.05;3.20;;;;;;;;;;4913835;29;20529;-84